Thunder radar more information blitzortung!


avis per Pluja more information rain snow radar


Visita la nostra xarxa de llocs de meteo:

Template documentation
and downloads

And another site



Rain From: 16-11-2018 00:00 Until: 09:59 warning for: Rain Level: Yellow info button

Pagina Historial Weather Underground text

Diari Resum May 29, 2017 Unitats:  Tant    Imperial   Mètric
« Previous Dia
SegĂźent Dia »
Diari Setmana Mensual Anual Personalitzada
  Maxima: Minima: Media:
Temperatura: TemperatureC °F /  -17.8 °C 15.0 °F /  -9.4 °C 22.9 °F /  -5.1 °C
Punt de rosada: DewpointC °F /  -17.8 °C 5.7 °F /  -14.6 °C 8.4 °F /  -13.1 °C
Humitat: Humidity % 29 % 41 %
Wind Speed: WindSpeedKMH mph /  0 km/h - 6.7 mph /  10.8 km/h
RĂ fegues de vent: WindSpeedGustKMH mph /  0 km/h - -
Vent:- - SE
Pression baro: PressurehPa in /  0 hPa 1012.8 in /  34293.4 hPa -
Precipitacions: 0.0 in /  0 mm    
Historical Graphs
 
 
Dades de taula per May 29, 2017
Temps Temperatura Punt de rosada Pression baro Vent Wind Speed RĂ fegues de vent Humitat Rainfall Rate (Hourly)
TemperatureC °F /  -17.8 °C DewpointC °F /  -17.8 °C PressurehPa in /  0 hPa Calm     Humidity % HourlyPrecipMM in /  0 mm
00:00 15.1 °F /  -9.4 °C 8.8 °F /  -12.9 °C 1015.8 in /  34395 hPa WSW 3.2 mph /  5.1 km/h 4.8 mph /  7.7 km/h 66 % 0.0 in /  0 mm
00:03 19.5 °F /  -6.9 °C 10.8 °F /  -11.8 °C 1017.8 in /  34462.7 hPa Calm     57 % 0.0 in /  0 mm
00:08 19.4 °F /  -7 °C 10.7 °F /  -11.8 °C 1017.8 in /  34462.7 hPa Calm     57 % 0.0 in /  0 mm
00:10 15.1 °F /  -9.4 °C 8.8 °F /  -12.9 °C 1014.8 in /  34361.1 hPa WSW 1.6 mph /  2.6 km/h 3.2 mph /  5.1 km/h 66 % 0.0 in /  0 mm
00:20 15.2 °F /  -9.3 °C 9.1 °F /  -12.7 °C 1015.8 in /  34395 hPa Calm   3.2 mph /  5.1 km/h 67 % 0.0 in /  0 mm
00:40 15.2 °F /  -9.3 °C 9.1 °F /  -12.7 °C 1015.8 in /  34395 hPa Calm   3.2 mph /  5.1 km/h 67 % 0.0 in /  0 mm
00:50 15.3 °F /  -9.3 °C 9.2 °F /  -12.7 °C 1015.8 in /  34395 hPa Calm   1.6 mph /  2.6 km/h 67 % 0.0 in /  0 mm
01:00 15.3 °F /  -9.3 °C 9.2 °F /  -12.7 °C 1015.8 in /  34395 hPa Calm     67 % 0.0 in /  0 mm
01:10 15.3 °F /  -9.3 °C 9.2 °F /  -12.7 °C 1015.8 in /  34395 hPa Calm     67 % 0.0 in /  0 mm
01:20 15.2 °F /  -9.3 °C 9.1 °F /  -12.7 °C 1015.8 in /  34395 hPa Calm     67 % 0.0 in /  0 mm
01:30 15.0 °F /  -9.4 °C 9.1 °F /  -12.7 °C 1015.8 in /  34395 hPa Calm     68 % 0.0 in /  0 mm
01:40 15.0 °F /  -9.4 °C 9.1 °F /  -12.7 °C 1015.8 in /  34395 hPa Calm     68 % 0.0 in /  0 mm
01:50 15.1 °F /  -9.4 °C 9.2 °F /  -12.7 °C 1015.8 in /  34395 hPa Calm     68 % 0.0 in /  0 mm
02:00 15.4 °F /  -9.2 °C 9.5 °F /  -12.5 °C 1015.8 in /  34395 hPa Calm     68 % 0.0 in /  0 mm
02:10 15.9 °F /  -8.9 °C 10.0 °F /  -12.2 °C 1015.8 in /  34395 hPa Calm     68 % 0.0 in /  0 mm
02:20 16.0 °F /  -8.9 °C 9.9 °F /  -12.3 °C 1015.8 in /  34395 hPa NE 1.6 mph /  2.6 km/h 3.2 mph /  5.1 km/h 67 % 0.0 in /  0 mm
02:30 16.5 °F /  -8.6 °C 10.3 °F /  -12.1 °C 1015.8 in /  34395 hPa NE 1.6 mph /  2.6 km/h 1.6 mph /  2.6 km/h 67 % 0.0 in /  0 mm
02:40 16.8 °F /  -8.4 °C 10.4 °F /  -12 °C 1015.8 in /  34395 hPa NE 1.6 mph /  2.6 km/h 3.2 mph /  5.1 km/h 66 % 0.0 in /  0 mm
02:50 16.7 °F /  -8.5 °C 10.3 °F /  -12.1 °C 1015.8 in /  34395 hPa Calm   1.6 mph /  2.6 km/h 66 % 0.0 in /  0 mm
03:00 17.2 °F /  -8.2 °C 10.3 °F /  -12.1 °C 1015.8 in /  34395 hPa Calm   1.6 mph /  2.6 km/h 64 % 0.0 in /  0 mm
03:10 17.2 °F /  -8.2 °C 10.1 °F /  -12.2 °C 1015.8 in /  34395 hPa SW 3.2 mph /  5.1 km/h 3.2 mph /  5.1 km/h 63 % 0.0 in /  0 mm
03:20 17.2 °F /  -8.2 °C 9.8 °F /  -12.3 °C 1015.8 in /  34395 hPa SW 1.6 mph /  2.6 km/h 3.2 mph /  5.1 km/h 62 % 0.0 in /  0 mm
03:30 17.3 °F /  -8.2 °C 9.9 °F /  -12.3 °C 1015.8 in /  34395 hPa SW 1.6 mph /  2.6 km/h 3.2 mph /  5.1 km/h 62 % 0.0 in /  0 mm
03:40 17.6 °F /  -8 °C 10.2 °F /  -12.1 °C 1015.8 in /  34395 hPa Calm   3.2 mph /  5.1 km/h 62 % 0.0 in /  0 mm
03:50 18.2 °F /  -7.7 °C 10.8 °F /  -11.8 °C 1015.8 in /  34395 hPa SW 1.6 mph /  2.6 km/h 3.2 mph /  5.1 km/h 62 % 0.0 in /  0 mm
04:00 18.8 °F /  -7.3 °C 11.1 °F /  -11.6 °C 1015.8 in /  34395 hPa SW 3.2 mph /  5.1 km/h 3.2 mph /  5.1 km/h 61 % 0.0 in /  0 mm
04:15 20.4 °F /  -6.4 °C 11.8 °F /  -11.2 °C 1015.8 in /  34395 hPa Calm   3.2 mph /  5.1 km/h 58 % 0.0 in /  0 mm
04:25 20.4 °F /  -6.4 °C 11.3 °F /  -11.5 °C 1015.8 in /  34395 hPa East 1.6 mph /  2.6 km/h 3.2 mph /  5.1 km/h 56 % 0.0 in /  0 mm
04:45 21.8 °F /  -5.7 °C 11.8 °F /  -11.2 °C 1014.8 in /  34361.1 hPa ENE 3.2 mph /  5.1 km/h 6.4 mph /  10.3 km/h 53 % 0.0 in /  0 mm
04:55 22.1 °F /  -5.5 °C 11.5 °F /  -11.4 °C 1016.8 in /  34428.8 hPa SE 3.2 mph /  5.1 km/h 3.2 mph /  5.1 km/h 51 % 0.0 in /  0 mm
05:05 22.3 °F /  -5.4 °C 11.7 °F /  -11.3 °C 1016.8 in /  34428.8 hPa SSW 1.6 mph /  2.6 km/h 3.2 mph /  5.1 km/h 51 % 0.0 in /  0 mm
05:15 22.5 °F /  -5.3 °C 11.8 °F /  -11.2 °C 1014.8 in /  34361.1 hPa SW 3.2 mph /  5.1 km/h 4.8 mph /  7.7 km/h 51 % 0.0 in /  0 mm
05:25 23.0 °F /  -5 °C 12.0 °F /  -11.1 °C 1015.8 in /  34395 hPa SW 1.6 mph /  2.6 km/h 3.2 mph /  5.1 km/h 50 % 0.0 in /  0 mm
10:34 23.1 °F /  -4.9 °C 11.8 °F /  -11.2 °C 1015.8 in /  34395 hPa WSW 1.9 mph /  3.1 km/h 2.3 mph /  3.7 km/h 49 % 0.0 in /  0 mm
10:39 23.5 °F /  -4.7 °C 11.8 °F /  -11.2 °C 1015.8 in /  34395 hPa SSE 1.9 mph /  3.1 km/h 1.9 mph /  3.1 km/h 48 % 0.0 in /  0 mm
10:40 23.5 °F /  -4.7 °C 11.8 °F /  -11.2 °C 1015.8 in /  34395 hPa SE 3.2 mph /  5.1 km/h 3.2 mph /  5.1 km/h 48 % 0.0 in /  0 mm
10:45 23.6 °F /  -4.7 °C 11.6 °F /  -11.3 °C 1015.8 in /  34395 hPa SE 5.3 mph /  8.5 km/h 5.3 mph /  8.5 km/h 47 % 0.0 in /  0 mm
10:50 23.2 °F /  -4.9 °C 11.3 °F /  -11.5 °C 1015.8 in /  34395 hPa ESE 5.6 mph /  9 km/h 5.6 mph /  9 km/h 47 % 0.0 in /  0 mm
10:55 23.5 °F /  -4.7 °C 11.6 °F /  -11.3 °C 1015.8 in /  34395 hPa NE 4.2 mph /  6.8 km/h 4.2 mph /  6.8 km/h 47 % 0.0 in /  0 mm
11:00 23.9 °F /  -4.5 °C 11.9 °F /  -11.2 °C 1015.8 in /  34395 hPa SW 3.7 mph /  6 km/h 3.7 mph /  6 km/h 47 % 0.0 in /  0 mm
11:05 24.6 °F /  -4.1 °C 12.2 °F /  -11 °C 1015.8 in /  34395 hPa South 2.6 mph /  4.2 km/h   46 % 0.0 in /  0 mm
11:10 24.8 °F /  -4 °C 12.1 °F /  -11.1 °C 1015.8 in /  34395 hPa SE 4.2 mph /  6.8 km/h 4.2 mph /  6.8 km/h 45 % 0.0 in /  0 mm
11:15 24.4 °F /  -4.2 °C 11.3 °F /  -11.5 °C 1015.8 in /  34395 hPa South 5.6 mph /  9 km/h 5.6 mph /  9 km/h 44 % 0.0 in /  0 mm
11:20 24.4 °F /  -4.2 °C 11.3 °F /  -11.5 °C 1015.8 in /  34395 hPa SSE 5.6 mph /  9 km/h 5.6 mph /  9 km/h 44 % 0.0 in /  0 mm
11:25 24.7 °F /  -4.1 °C 11.3 °F /  -11.5 °C 1015.8 in /  34395 hPa ESE 5.6 mph /  9 km/h 5.6 mph /  9 km/h 43 % 0.0 in /  0 mm
11:30 25.3 °F /  -3.7 °C 11.8 °F /  -11.2 °C 1015.8 in /  34395 hPa SW 3.7 mph /  6 km/h 3.7 mph /  6 km/h 43 % 0.0 in /  0 mm
11:35 26.0 °F /  -3.3 °C 12.4 °F /  -10.9 °C 1015.8 in /  34395 hPa SSW 1.9 mph /  3.1 km/h 1.9 mph /  3.1 km/h 43 % 0.0 in /  0 mm
11:40 26.8 °F /  -2.9 °C 12.8 °F /  -10.7 °C 1015.8 in /  34395 hPa ESE 3.7 mph /  6 km/h 3.7 mph /  6 km/h 42 % 0.0 in /  0 mm
11:45 26.3 °F /  -3.2 °C 12.0 °F /  -11.1 °C 1015.8 in /  34395 hPa SE 3.7 mph /  6 km/h 3.7 mph /  6 km/h 41 % 0.0 in /  0 mm
11:50 25.8 °F /  -3.4 °C 11.2 °F /  -11.6 °C 1015.8 in /  34395 hPa NE 5.6 mph /  9 km/h 5.6 mph /  9 km/h 40 % 0.0 in /  0 mm
11:55 25.1 °F /  -3.8 °C 10.2 °F /  -12.1 °C 1015.8 in /  34395 hPa North 9.3 mph /  15 km/h 9.3 mph /  15 km/h 39 % 0.0 in /  0 mm
12:00 25.1 °F /  -3.8 °C 10.2 °F /  -12.1 °C 1015.8 in /  34395 hPa SE 6.4 mph /  10.3 km/h 6.4 mph /  10.3 km/h 39 % 0.0 in /  0 mm
12:05 25.3 °F /  -3.7 °C 10.7 °F /  -11.8 °C 1015.8 in /  34395 hPa East 7.4 mph /  11.9 km/h 7.4 mph /  11.9 km/h 40 % 0.0 in /  0 mm
12:10 25.9 °F /  -3.4 °C 10.9 °F /  -11.7 °C 1015.8 in /  34395 hPa South 4.2 mph /  6.8 km/h 4.2 mph /  6.8 km/h 39 % 0.0 in /  0 mm
12:15 25.7 °F /  -3.5 °C 11.1 °F /  -11.6 °C 1015.8 in /  34395 hPa ENE 6.4 mph /  10.3 km/h 6.4 mph /  10.3 km/h 40 % 0.0 in /  0 mm
12:20 25.7 °F /  -3.5 °C 10.7 °F /  -11.8 °C 1015.8 in /  34395 hPa SSE 1.9 mph /  3.1 km/h 1.9 mph /  3.1 km/h 39 % 0.0 in /  0 mm
12:25 26.0 °F /  -3.3 °C 10.9 °F /  -11.7 °C 1015.8 in /  34395 hPa ESE 4.2 mph /  6.8 km/h 4.2 mph /  6.8 km/h 39 % 0.0 in /  0 mm
12:30 25.9 °F /  -3.4 °C 10.9 °F /  -11.7 °C 1015.8 in /  34395 hPa SSE 7.4 mph /  11.9 km/h 7.4 mph /  11.9 km/h 39 % 0.0 in /  0 mm
12:35 25.9 °F /  -3.4 °C 10.5 °F /  -11.9 °C 1015.8 in /  34395 hPa NNE 6.9 mph /  11.1 km/h 6.9 mph /  11.1 km/h 38 % 0.0 in /  0 mm
12:40 26.1 °F /  -3.3 °C 11.1 °F /  -11.6 °C 1015.8 in /  34395 hPa ESE 6.1 mph /  9.8 km/h 6.1 mph /  9.8 km/h 39 % 0.0 in /  0 mm
12:45 26.2 °F /  -3.2 °C 10.8 °F /  -11.8 °C 1015.8 in /  34395 hPa East 3.7 mph /  6 km/h 3.7 mph /  6 km/h 38 % 0.0 in /  0 mm
12:50 26.6 °F /  -3 °C 11.1 °F /  -11.6 °C 1015.8 in /  34395 hPa South 7.4 mph /  11.9 km/h 7.4 mph /  11.9 km/h 38 % 0.0 in /  0 mm
12:55 26.4 °F /  -3.1 °C 10.9 °F /  -11.7 °C 1015.8 in /  34395 hPa East 10.0 mph /  16.1 km/h 10.0 mph /  16.1 km/h 38 % 0.0 in /  0 mm
13:00 26.4 °F /  -3.1 °C 10.6 °F /  -11.9 °C 1015.8 in /  34395 hPa ESE 15.8 mph /  25.4 km/h 15.8 mph /  25.4 km/h 37 % 0.0 in /  0 mm
13:05 25.8 °F /  -3.4 °C 9.6 °F /  -12.4 °C 1015.8 in /  34395 hPa ESE 13.0 mph /  20.9 km/h 13.0 mph /  20.9 km/h 36 % 0.0 in /  0 mm
13:10 26.2 °F /  -3.2 °C 9.9 °F /  -12.3 °C 1014.8 in /  34361.1 hPa South 7.4 mph /  11.9 km/h 7.4 mph /  11.9 km/h 36 % 0.0 in /  0 mm
13:15 26.4 °F /  -3.1 °C 10.1 °F /  -12.2 °C 1014.8 in /  34361.1 hPa ENE 13.0 mph /  20.9 km/h 13.0 mph /  20.9 km/h 36 % 0.0 in /  0 mm
13:20 26.5 °F /  -3.1 °C 10.2 °F /  -12.1 °C 1014.8 in /  34361.1 hPa SW 14.8 mph /  23.8 km/h 14.8 mph /  23.8 km/h 36 % 0.0 in /  0 mm
13:25 26.7 °F /  -2.9 °C 9.6 °F /  -12.4 °C 1014.8 in /  34361.1 hPa ESE 14.8 mph /  23.8 km/h 14.8 mph /  23.8 km/h 34 % 0.0 in /  0 mm
13:30 26.6 °F /  -3 °C 9.9 °F /  -12.3 °C 1014.8 in /  34361.1 hPa WSW 11.1 mph /  17.9 km/h 11.1 mph /  17.9 km/h 35 % 0.0 in /  0 mm
13:35 26.4 °F /  -3.1 °C 9.7 °F /  -12.4 °C 1014.8 in /  34361.1 hPa SE 9.5 mph /  15.3 km/h 9.5 mph /  15.3 km/h 35 % 0.0 in /  0 mm
13:40 26.7 °F /  -2.9 °C 9.9 °F /  -12.3 °C 1014.8 in /  34361.1 hPa SSE 9.3 mph /  15 km/h 9.3 mph /  15 km/h 35 % 0.0 in /  0 mm
13:45 26.4 °F /  -3.1 °C 9.3 °F /  -12.6 °C 1014.8 in /  34361.1 hPa ESE 16.7 mph /  26.9 km/h 16.7 mph /  26.9 km/h 34 % 0.0 in /  0 mm
13:50 26.3 °F /  -3.2 °C 9.2 °F /  -12.7 °C 1014.8 in /  34361.1 hPa NNE 13.0 mph /  20.9 km/h 13.0 mph /  20.9 km/h 34 % 0.0 in /  0 mm
13:55 26.4 °F /  -3.1 °C 8.8 °F /  -12.9 °C 1014.8 in /  34361.1 hPa ESE 11.1 mph /  17.9 km/h 11.1 mph /  17.9 km/h 33 % 0.0 in /  0 mm
14:00 26.4 °F /  -3.1 °C 8.8 °F /  -12.9 °C 1014.8 in /  34361.1 hPa ESE 9.3 mph /  15 km/h 10.0 mph /  16.1 km/h 33 % 0.0 in /  0 mm
14:05 26.5 °F /  -3.1 °C 9.3 °F /  -12.6 °C 1014.8 in /  34361.1 hPa ESE 14.8 mph /  23.8 km/h 14.8 mph /  23.8 km/h 34 % 0.0 in /  0 mm
14:10 26.5 °F /  -3.1 °C 9.3 °F /  -12.6 °C 1014.8 in /  34361.1 hPa ENE 9.5 mph /  15.3 km/h 9.5 mph /  15.3 km/h 34 % 0.0 in /  0 mm
14:15 26.4 °F /  -3.1 °C 8.4 °F /  -13.1 °C 1014.8 in /  34361.1 hPa East 20.4 mph /  32.8 km/h 20.4 mph /  32.8 km/h 32 % 0.0 in /  0 mm
14:20 26.5 °F /  -3.1 °C 8.4 °F /  -13.1 °C 1014.8 in /  34361.1 hPa East 13.0 mph /  20.9 km/h 13.0 mph /  20.9 km/h 32 % 0.0 in /  0 mm
14:25 26.5 °F /  -3.1 °C 8.4 °F /  -13.1 °C 1014.8 in /  34361.1 hPa ENE 13.0 mph /  20.9 km/h 13.0 mph /  20.9 km/h 32 % 0.0 in /  0 mm
14:30 26.4 °F /  -3.1 °C 7.9 °F /  -13.4 °C 1014.8 in /  34361.1 hPa ESE 14.8 mph /  23.8 km/h 14.8 mph /  23.8 km/h 31 % 0.0 in /  0 mm
14:35 26.7 °F /  -2.9 °C 8.2 °F /  -13.2 °C 1014.8 in /  34361.1 hPa NE 10.3 mph /  16.6 km/h 10.3 mph /  16.6 km/h 31 % 0.0 in /  0 mm
14:40 26.9 °F /  -2.8 °C 8.3 °F /  -13.2 °C 1013.8 in /  34327.3 hPa ESE 9.3 mph /  15 km/h 9.3 mph /  15 km/h 31 % 0.0 in /  0 mm
14:45 26.5 °F /  -3.1 °C 8.0 °F /  -13.3 °C 1013.8 in /  34327.3 hPa ESE 11.3 mph /  18.2 km/h 17.7 mph /  28.5 km/h 31 % 0.0 in /  0 mm
14:50 26.5 °F /  -3.1 °C 8.0 °F /  -13.3 °C 1013.8 in /  34327.3 hPa ESE 11.3 mph /  18.2 km/h 16.1 mph /  25.9 km/h 31 % 0.0 in /  0 mm
14:55 26.8 °F /  -2.9 °C 8.2 °F /  -13.2 °C 1013.8 in /  34327.3 hPa East 8.0 mph /  12.9 km/h 19.3 mph /  31.1 km/h 31 % 0.0 in /  0 mm
15:00 27.0 °F /  -2.8 °C 7.9 °F /  -13.4 °C 1013.8 in /  34327.3 hPa ESE 12.9 mph /  20.8 km/h 19.3 mph /  31.1 km/h 30 % 0.0 in /  0 mm
15:05 27.2 °F /  -2.7 °C 8.1 °F /  -13.3 °C 1013.8 in /  34327.3 hPa SE 4.8 mph /  7.7 km/h 22.5 mph /  36.2 km/h 30 % 0.0 in /  0 mm
15:10 26.6 °F /  -3 °C 7.6 °F /  -13.6 °C 1013.8 in /  34327.3 hPa SE 20.4 mph /  32.8 km/h 20.4 mph /  32.8 km/h 30 % 0.0 in /  0 mm
15:15 26.5 °F /  -3.1 °C 7.5 °F /  -13.6 °C 1013.8 in /  34327.3 hPa East 16.7 mph /  26.9 km/h 16.7 mph /  26.9 km/h 30 % 0.0 in /  0 mm
15:20 26.7 °F /  -2.9 °C 7.7 °F /  -13.5 °C 1013.8 in /  34327.3 hPa ENE 16.7 mph /  26.9 km/h 16.7 mph /  26.9 km/h 30 % 0.0 in /  0 mm
15:25 26.6 °F /  -3 °C 7.6 °F /  -13.6 °C 1012.8 in /  34293.4 hPa SSE 18.5 mph /  29.8 km/h 18.5 mph /  29.8 km/h 30 % 0.0 in /  0 mm
15:30 26.7 °F /  -2.9 °C 7.7 °F /  -13.5 °C 1012.8 in /  34293.4 hPa East 20.6 mph /  33.2 km/h 20.6 mph /  33.2 km/h 30 % 0.0 in /  0 mm
15:35 26.4 °F /  -3.1 °C 7.4 °F /  -13.7 °C 1012.8 in /  34293.4 hPa SE 13.0 mph /  20.9 km/h 13.0 mph /  20.9 km/h 30 % 0.0 in /  0 mm
15:40 26.3 °F /  -3.2 °C 7.3 °F /  -13.7 °C 1013.8 in /  34327.3 hPa East 14.8 mph /  23.8 km/h 14.8 mph /  23.8 km/h 30 % 0.0 in /  0 mm
15:45 26.4 °F /  -3.1 °C 7.4 °F /  -13.7 °C 1013.8 in /  34327.3 hPa ESE 14.8 mph /  23.8 km/h 14.8 mph /  23.8 km/h 30 % 0.0 in /  0 mm
15:50 26.5 °F /  -3.1 °C 7.5 °F /  -13.6 °C 1013.8 in /  34327.3 hPa ESE 20.4 mph /  32.8 km/h 20.4 mph /  32.8 km/h 30 % 0.0 in /  0 mm
15:55 26.5 °F /  -3.1 °C 7.0 °F /  -13.9 °C 1012.8 in /  34293.4 hPa ESE 13.0 mph /  20.9 km/h 13.0 mph /  20.9 km/h 29 % 0.0 in /  0 mm
16:00 26.6 °F /  -3 °C 7.1 °F /  -13.8 °C 1012.8 in /  34293.4 hPa ENE 20.4 mph /  32.8 km/h 20.4 mph /  32.8 km/h 29 % 0.0 in /  0 mm
16:05 26.7 °F /  -2.9 °C 7.7 °F /  -13.5 °C 1012.8 in /  34293.4 hPa ENE 11.4 mph /  18.3 km/h 11.4 mph /  18.3 km/h 30 % 0.0 in /  0 mm
16:10 26.4 °F /  -3.1 °C 7.4 °F /  -13.7 °C 1013.8 in /  34327.3 hPa East 20.4 mph /  32.8 km/h 20.4 mph /  32.8 km/h 30 % 0.0 in /  0 mm
16:15 26.5 °F /  -3.1 °C 7.5 °F /  -13.6 °C 1013.8 in /  34327.3 hPa ESE 16.7 mph /  26.9 km/h 16.7 mph /  26.9 km/h 30 % 0.0 in /  0 mm
16:20 26.6 °F /  -3 °C 7.6 °F /  -13.6 °C 1013.8 in /  34327.3 hPa ESE 13.0 mph /  20.9 km/h 13.0 mph /  20.9 km/h 30 % 0.0 in /  0 mm
16:25 27.1 °F /  -2.7 °C 8.0 °F /  -13.3 °C 1013.8 in /  34327.3 hPa SSW 9.3 mph /  15 km/h 9.3 mph /  15 km/h 30 % 0.0 in /  0 mm
16:35 26.6 °F /  -3 °C 7.6 °F /  -13.6 °C 1012.8 in /  34293.4 hPa East 7.4 mph /  11.9 km/h 7.4 mph /  11.9 km/h 30 % 0.0 in /  0 mm
16:40 26.5 °F /  -3.1 °C 7.0 °F /  -13.9 °C 1012.8 in /  34293.4 hPa WSW 13.0 mph /  20.9 km/h 13.0 mph /  20.9 km/h 29 % 0.0 in /  0 mm
16:45 26.7 °F /  -2.9 °C 7.7 °F /  -13.5 °C 1012.8 in /  34293.4 hPa ENE 9.5 mph /  15.3 km/h 9.5 mph /  15.3 km/h 30 % 0.0 in /  0 mm
16:50 26.0 °F /  -3.3 °C 7.1 °F /  -13.8 °C 1013.8 in /  34327.3 hPa NE 18.5 mph /  29.8 km/h 18.5 mph /  29.8 km/h 30 % 0.0 in /  0 mm
16:55 25.8 °F /  -3.4 °C 6.9 °F /  -13.9 °C 1013.8 in /  34327.3 hPa East 18.5 mph /  29.8 km/h 18.5 mph /  29.8 km/h 30 % 0.0 in /  0 mm
17:00 25.4 °F /  -3.7 °C 6.6 °F /  -14.1 °C 1013.8 in /  34327.3 hPa ESE 17.5 mph /  28.2 km/h 17.5 mph /  28.2 km/h 30 % 0.0 in /  0 mm
17:05 25.5 °F /  -3.6 °C 6.7 °F /  -14.1 °C 1012.8 in /  34293.4 hPa ESE 9.3 mph /  15 km/h 9.3 mph /  15 km/h 30 % 0.0 in /  0 mm
17:10 25.2 °F /  -3.8 °C 6.4 °F /  -14.2 °C 1012.8 in /  34293.4 hPa East 16.7 mph /  26.9 km/h 16.7 mph /  26.9 km/h 30 % 0.0 in /  0 mm
17:15 25.1 °F /  -3.8 °C 6.8 °F /  -14 °C 1012.8 in /  34293.4 hPa ESE 9.3 mph /  15 km/h 9.3 mph /  15 km/h 31 % 0.0 in /  0 mm
17:20 24.8 °F /  -4 °C 7.0 °F /  -13.9 °C 1012.8 in /  34293.4 hPa ESE 20.4 mph /  32.8 km/h 20.4 mph /  32.8 km/h 32 % 0.0 in /  0 mm
17:25 24.8 °F /  -4 °C 7.0 °F /  -13.9 °C 1012.8 in /  34293.4 hPa SE 15.6 mph /  25.1 km/h 15.6 mph /  25.1 km/h 32 % 0.0 in /  0 mm
17:30 24.6 °F /  -4.1 °C 6.8 °F /  -14 °C 1012.8 in /  34293.4 hPa SE 14.8 mph /  23.8 km/h 14.8 mph /  23.8 km/h 32 % 0.0 in /  0 mm
17:35 24.6 °F /  -4.1 °C 6.8 °F /  -14 °C 1012.8 in /  34293.4 hPa ENE 16.7 mph /  26.9 km/h 16.7 mph /  26.9 km/h 32 % 0.0 in /  0 mm
17:40 24.4 °F /  -4.2 °C 6.6 °F /  -14.1 °C 1012.8 in /  34293.4 hPa ESE 15.1 mph /  24.3 km/h 15.1 mph /  24.3 km/h 32 % 0.0 in /  0 mm
17:45 24.3 °F /  -4.3 °C 6.6 °F /  -14.1 °C 1012.8 in /  34293.4 hPa ESE 14.8 mph /  23.8 km/h 14.8 mph /  23.8 km/h 32 % 0.0 in /  0 mm
17:50 24.0 °F /  -4.4 °C 5.8 °F /  -14.6 °C 1012.8 in /  34293.4 hPa NE 16.7 mph /  26.9 km/h 16.7 mph /  26.9 km/h 31 % 0.0 in /  0 mm
17:55 24.0 °F /  -4.4 °C 5.8 °F /  -14.6 °C 1012.8 in /  34293.4 hPa ESE 14.8 mph /  23.8 km/h 14.8 mph /  23.8 km/h 31 % 0.0 in /  0 mm
18:00 23.9 °F /  -4.5 °C 5.7 °F /  -14.6 °C 1012.8 in /  34293.4 hPa ENE 13.0 mph /  20.9 km/h 13.0 mph /  20.9 km/h 31 % 0.0 in /  0 mm
18:05 23.9 °F /  -4.5 °C 6.2 °F /  -14.3 °C 1012.8 in /  34293.4 hPa SE 9.3 mph /  15 km/h 9.3 mph /  15 km/h 32 % 0.0 in /  0 mm
18:10 23.8 °F /  -4.6 °C 6.1 °F /  -14.4 °C 1012.8 in /  34293.4 hPa SW 7.4 mph /  11.9 km/h 7.4 mph /  11.9 km/h 32 % 0.0 in /  0 mm
18:15 23.8 °F /  -4.6 °C 6.1 °F /  -14.4 °C 1012.8 in /  34293.4 hPa NE 5.6 mph /  9 km/h 6.1 mph /  9.8 km/h 32 % 0.0 in /  0 mm
18:20 23.7 °F /  -4.6 °C 6.0 °F /  -14.4 °C 1012.8 in /  34293.4 hPa ESE 14.8 mph /  23.8 km/h 14.8 mph /  23.8 km/h 32 % 0.0 in /  0 mm
18:25 23.6 °F /  -4.7 °C 5.9 °F /  -14.5 °C 1012.8 in /  34293.4 hPa NNE 11.1 mph /  17.9 km/h 11.1 mph /  17.9 km/h 32 % 0.0 in /  0 mm
18:30 23.7 °F /  -4.6 °C 6.4 °F /  -14.2 °C 1012.8 in /  34293.4 hPa ESE 8.7 mph /  14 km/h 8.7 mph /  14 km/h 33 % 0.0 in /  0 mm
18:35 23.5 °F /  -4.7 °C 6.3 °F /  -14.3 °C 1012.8 in /  34293.4 hPa East 9.3 mph /  15 km/h 9.3 mph /  15 km/h 33 % 0.0 in /  0 mm
18:40 23.5 °F /  -4.7 °C 6.7 °F /  -14.1 °C 1012.8 in /  34293.4 hPa ESE 9.3 mph /  15 km/h 9.3 mph /  15 km/h 34 % 0.0 in /  0 mm
18:45 23.5 °F /  -4.7 °C 6.7 °F /  -14.1 °C 1012.8 in /  34293.4 hPa ESE 10.3 mph /  16.6 km/h 10.3 mph /  16.6 km/h 34 % 0.0 in /  0 mm
18:50 23.4 °F /  -4.8 °C 7.1 °F /  -13.8 °C 1012.8 in /  34293.4 hPa SSE 9.3 mph /  15 km/h 9.3 mph /  15 km/h 35 % 0.0 in /  0 mm
18:55 23.4 °F /  -4.8 °C 7.1 °F /  -13.8 °C 1012.8 in /  34293.4 hPa ENE 11.1 mph /  17.9 km/h 11.1 mph /  17.9 km/h 35 % 0.0 in /  0 mm
19:00 23.4 °F /  -4.8 °C 7.1 °F /  -13.8 °C 1012.8 in /  34293.4 hPa East 11.1 mph /  17.9 km/h 11.1 mph /  17.9 km/h 35 % 0.0 in /  0 mm
19:05 23.3 °F /  -4.8 °C 6.9 °F /  -13.9 °C 1012.8 in /  34293.4 hPa ESE 11.1 mph /  17.9 km/h 11.1 mph /  17.9 km/h 35 % 0.0 in /  0 mm
19:10 23.3 °F /  -4.8 °C 6.9 °F /  -13.9 °C 1012.8 in /  34293.4 hPa ESE 9.3 mph /  15 km/h 9.3 mph /  15 km/h 35 % 0.0 in /  0 mm
19:15 23.4 °F /  -4.8 °C 7.1 °F /  -13.8 °C 1012.8 in /  34293.4 hPa South 3.7 mph /  6 km/h 3.7 mph /  6 km/h 35 % 0.0 in /  0 mm
19:20 23.5 °F /  -4.7 °C 7.6 °F /  -13.6 °C 1013.8 in /  34327.3 hPa WSW 3.7 mph /  6 km/h 3.7 mph /  6 km/h 36 % 0.0 in /  0 mm
19:25 23.6 °F /  -4.7 °C 7.7 °F /  -13.5 °C 1013.8 in /  34327.3 hPa SW 5.0 mph /  8 km/h   36 % 0.0 in /  0 mm
19:30 23.7 °F /  -4.6 °C 7.3 °F /  -13.7 °C 1013.8 in /  34327.3 hPa SW 3.7 mph /  6 km/h 3.7 mph /  6 km/h 35 % 0.0 in /  0 mm
19:35 23.7 °F /  -4.6 °C 7.3 °F /  -13.7 °C 1013.8 in /  34327.3 hPa SW 3.7 mph /  6 km/h 3.7 mph /  6 km/h 35 % 0.0 in /  0 mm
19:40 23.7 °F /  -4.6 °C 7.3 °F /  -13.7 °C 1013.8 in /  34327.3 hPa SSE 1.9 mph /  3.1 km/h   35 % 0.0 in /  0 mm
19:45 23.7 °F /  -4.6 °C 7.3 °F /  -13.7 °C 1013.8 in /  34327.3 hPa SW 1.9 mph /  3.1 km/h 1.9 mph /  3.1 km/h 35 % 0.0 in /  0 mm
19:50 23.5 °F /  -4.7 °C 6.7 °F /  -14.1 °C 1013.8 in /  34327.3 hPa WSW 3.9 mph /  6.3 km/h 3.9 mph /  6.3 km/h 34 % 0.0 in /  0 mm
19:55 23.4 °F /  -4.8 °C 6.6 °F /  -14.1 °C 1013.8 in /  34327.3 hPa SW 3.7 mph /  6 km/h 3.7 mph /  6 km/h 34 % 0.0 in /  0 mm
20:00 23.3 °F /  -4.8 °C 6.6 °F /  -14.1 °C 1013.8 in /  34327.3 hPa SSW 3.7 mph /  6 km/h 3.7 mph /  6 km/h 34 % 0.0 in /  0 mm
20:05 23.3 °F /  -4.8 °C 6.6 °F /  -14.1 °C 1013.8 in /  34327.3 hPa SW 3.7 mph /  6 km/h 3.7 mph /  6 km/h 34 % 0.0 in /  0 mm
20:10 23.3 °F /  -4.8 °C 6.6 °F /  -14.1 °C 1013.8 in /  34327.3 hPa SW 3.7 mph /  6 km/h   34 % 0.0 in /  0 mm
20:15 23.2 °F /  -4.9 °C 6.4 °F /  -14.2 °C 1013.8 in /  34327.3 hPa WSW 3.2 mph /  5.1 km/h 3.2 mph /  5.1 km/h 34 % 0.0 in /  0 mm
20:20 23.2 °F /  -4.9 °C 6.4 °F /  -14.2 °C 1013.8 in /  34327.3 hPa Calm     34 % 0.0 in /  0 mm
20:25 23.1 °F /  -4.9 °C 6.4 °F /  -14.2 °C 1013.8 in /  34327.3 hPa Calm     34 % 0.0 in /  0 mm
20:30 23.0 °F /  -5 °C 5.8 °F /  -14.6 °C 1013.8 in /  34327.3 hPa SW 3.7 mph /  6 km/h 3.7 mph /  6 km/h 33 % 0.0 in /  0 mm
20:35 22.9 °F /  -5.1 °C 6.2 °F /  -14.3 °C 1013.8 in /  34327.3 hPa SW 1.9 mph /  3.1 km/h   34 % 0.0 in /  0 mm
20:40 22.9 °F /  -5.1 °C 6.2 °F /  -14.3 °C 1012.8 in /  34293.4 hPa SW 1.9 mph /  3.1 km/h   34 % 0.0 in /  0 mm
20:45 22.8 °F /  -5.1 °C 6.1 °F /  -14.4 °C 1012.8 in /  34293.4 hPa Calm     34 % 0.0 in /  0 mm
20:50 22.7 °F /  -5.2 °C 6.0 °F /  -14.4 °C 1012.8 in /  34293.4 hPa WNW 1.9 mph /  3.1 km/h   34 % 0.0 in /  0 mm
20:55 22.6 °F /  -5.2 °C 5.9 °F /  -14.5 °C 1012.8 in /  34293.4 hPa NE 3.2 mph /  5.1 km/h 3.2 mph /  5.1 km/h 34 % 0.0 in /  0 mm
21:00 22.5 °F /  -5.3 °C 5.8 °F /  -14.6 °C 1012.8 in /  34293.4 hPa NE 3.7 mph /  6 km/h 3.7 mph /  6 km/h 34 % 0.0 in /  0 mm
21:05 22.5 °F /  -5.3 °C 6.3 °F /  -14.3 °C 1012.8 in /  34293.4 hPa East 5.6 mph /  9 km/h 5.6 mph /  9 km/h 35 % 0.0 in /  0 mm
21:10 22.3 °F /  -5.4 °C 6.5 °F /  -14.2 °C 1012.8 in /  34293.4 hPa ENE 5.6 mph /  9 km/h 5.8 mph /  9.3 km/h 36 % 0.0 in /  0 mm
21:15 22.2 °F /  -5.4 °C 6.8 °F /  -14 °C 1012.8 in /  34293.4 hPa NNE 6.9 mph /  11.1 km/h 6.9 mph /  11.1 km/h 37 % 0.0 in /  0 mm
21:20 22.1 °F /  -5.5 °C 7.1 °F /  -13.8 °C 1012.8 in /  34293.4 hPa SW 5.6 mph /  9 km/h 5.6 mph /  9 km/h 38 % 0.0 in /  0 mm
21:25 22.0 °F /  -5.6 °C 7.0 °F /  -13.9 °C 1012.8 in /  34293.4 hPa WSW 3.7 mph /  6 km/h   38 % 0.0 in /  0 mm
21:30 21.8 °F /  -5.7 °C 7.2 °F /  -13.8 °C 1012.8 in /  34293.4 hPa SSE 1.9 mph /  3.1 km/h   39 % 0.0 in /  0 mm
21:35 21.7 °F /  -5.7 °C 7.1 °F /  -13.8 °C 1013.8 in /  34327.3 hPa South 3.7 mph /  6 km/h 3.9 mph /  6.3 km/h 39 % 0.0 in /  0 mm
21:40 21.7 °F /  -5.7 °C 7.1 °F /  -13.8 °C 1013.8 in /  34327.3 hPa South 1.9 mph /  3.1 km/h 1.9 mph /  3.1 km/h 39 % 0.0 in /  0 mm
21:45 21.6 °F /  -5.8 °C 7.1 °F /  -13.8 °C 1013.8 in /  34327.3 hPa NE 3.9 mph /  6.3 km/h   39 % 0.0 in /  0 mm
21:50 21.5 °F /  -5.8 °C 7.3 °F /  -13.7 °C 1013.8 in /  34327.3 hPa ENE 3.7 mph /  6 km/h 3.7 mph /  6 km/h 40 % 0.0 in /  0 mm
21:55 21.4 °F /  -5.9 °C 7.2 °F /  -13.8 °C 1013.8 in /  34327.3 hPa ENE 1.9 mph /  3.1 km/h   40 % 0.0 in /  0 mm
22:00 21.4 °F /  -5.9 °C 7.2 °F /  -13.8 °C 1013.8 in /  34327.3 hPa NNE 3.7 mph /  6 km/h 3.7 mph /  6 km/h 40 % 0.0 in /  0 mm
22:05 21.4 °F /  -5.9 °C 7.6 °F /  -13.6 °C 1013.8 in /  34327.3 hPa East 3.7 mph /  6 km/h 3.7 mph /  6 km/h 41 % 0.0 in /  0 mm
22:10 21.4 °F /  -5.9 °C 7.6 °F /  -13.6 °C 1013.8 in /  34327.3 hPa ENE 1.4 mph /  2.3 km/h   41 % 0.0 in /  0 mm
22:15 21.2 °F /  -6 °C 7.4 °F /  -13.7 °C 1013.8 in /  34327.3 hPa SW 1.9 mph /  3.1 km/h 1.9 mph /  3.1 km/h 41 % 0.0 in /  0 mm
22:20 21.0 °F /  -6.1 °C 7.2 °F /  -13.8 °C 1012.8 in /  34293.4 hPa Calm     41 % 0.0 in /  0 mm
22:25 20.8 °F /  -6.2 °C 7.4 °F /  -13.7 °C 1012.8 in /  34293.4 hPa Calm     42 % 0.0 in /  0 mm
22:30 20.7 °F /  -6.3 °C 7.3 °F /  -13.7 °C 1012.8 in /  34293.4 hPa Calm     42 % 0.0 in /  0 mm
22:35 20.7 °F /  -6.3 °C 7.3 °F /  -13.7 °C 1012.8 in /  34293.4 hPa South 3.7 mph /  6 km/h 3.7 mph /  6 km/h 42 % 0.0 in /  0 mm
22:40 20.7 °F /  -6.3 °C 6.9 °F /  -13.9 °C 1012.8 in /  34293.4 hPa SSE 2.3 mph /  3.7 km/h 2.3 mph /  3.7 km/h 41 % 0.0 in /  0 mm
22:45 17.8 °F /  -7.9 °C 8.4 °F /  -13.1 °C 1013.8 in /  34327.3 hPa NNE 1.6 mph /  2.6 km/h 3.2 mph /  5.1 km/h 54 % 0.0 in /  0 mm
22:50 20.6 °F /  -6.3 °C 7.2 °F /  -13.8 °C 1012.8 in /  34293.4 hPa Calm     42 % 0.0 in /  0 mm
22:55 20.5 °F /  -6.4 °C 7.2 °F /  -13.8 °C 1012.8 in /  34293.4 hPa Calm     42 % 0.0 in /  0 mm
23:00 20.5 °F /  -6.4 °C 7.2 °F /  -13.8 °C 1012.8 in /  34293.4 hPa East 1.9 mph /  3.1 km/h 2.3 mph /  3.7 km/h 42 % 0.0 in /  0 mm
23:05 20.4 °F /  -6.4 °C 7.1 °F /  -13.8 °C 1013.8 in /  34327.3 hPa North 1.9 mph /  3.1 km/h 1.9 mph /  3.1 km/h 42 % 0.0 in /  0 mm
23:10 20.4 °F /  -6.4 °C 7.1 °F /  -13.8 °C 1013.8 in /  34327.3 hPa Calm     42 % 0.0 in /  0 mm
23:15 20.4 °F /  -6.4 °C 7.1 °F /  -13.8 °C 1013.8 in /  34327.3 hPa NW 1.9 mph /  3.1 km/h 1.9 mph /  3.1 km/h 42 % 0.0 in /  0 mm
23:20 20.3 °F /  -6.5 °C 7.3 °F /  -13.7 °C 1013.8 in /  34327.3 hPa Calm     43 % 0.0 in /  0 mm
23:25 20.3 °F /  -6.5 °C 7.3 °F /  -13.7 °C 1013.8 in /  34327.3 hPa NE 3.7 mph /  6 km/h 3.7 mph /  6 km/h 43 % 0.0 in /  0 mm
23:30 20.2 °F /  -6.6 °C 7.2 °F /  -13.8 °C 1013.8 in /  34327.3 hPa NNE 2.3 mph /  3.7 km/h 2.3 mph /  3.7 km/h 43 % 0.0 in /  0 mm
23:35 20.2 °F /  -6.6 °C 7.6 °F /  -13.6 °C 1013.8 in /  34327.3 hPa NNE 1.9 mph /  3.1 km/h   44 % 0.0 in /  0 mm
23:40 20.1 °F /  -6.6 °C 7.4 °F /  -13.7 °C 1013.8 in /  34327.3 hPa NE 3.9 mph /  6.3 km/h 3.9 mph /  6.3 km/h 44 % 0.0 in /  0 mm
23:45 20.1 °F /  -6.6 °C 7.4 °F /  -13.7 °C 1013.8 in /  34327.3 hPa NNE 3.7 mph /  6 km/h   44 % 0.0 in /  0 mm
23:50 20.1 °F /  -6.6 °C 7.4 °F /  -13.7 °C 1014.8 in /  34361.1 hPa NE 2.6 mph /  4.2 km/h 2.6 mph /  4.2 km/h 44 % 0.0 in /  0 mm
23:55 20.0 °F /  -6.7 °C 7.4 °F /  -13.7 °C 1014.8 in /  34361.1 hPa NNE 3.9 mph /  6.3 km/h 3.9 mph /  6.3 km/h 44 % 0.0 in /  0 mm
Meteo Sesrovires
Elogis d' Weather Underground - 1.5 mb

Guio original per  Jim McMurry - jmcmurry@mwt.net Adaptat per a la plantilla per  Wim van der Kuil - Leuven-Template.eu

Trobareu la nostra informacio del temps tambe a:

Weather Underground

AWEKAS